createdAt,value
2016-11-16T00:00:17.138Z,0
2016-11-16T00:01:17.206Z,0
2016-11-16T00:02:17.240Z,0
2016-11-16T00:03:17.306Z,0
2016-11-16T00:04:17.363Z,0
2016-11-16T00:05:17.425Z,0
2016-11-16T00:06:17.479Z,0
2016-11-16T00:07:17.537Z,0
2016-11-16T00:08:17.604Z,0
2016-11-16T00:09:17.647Z,0
2016-11-16T00:10:17.704Z,0
2016-11-16T00:11:17.736Z,0
2016-11-16T00:12:17.797Z,0
2016-11-16T00:13:17.875Z,0
2016-11-16T00:14:17.914Z,0
2016-11-16T00:15:17.977Z,0
2016-11-16T00:16:18.042Z,0
2016-11-16T00:17:18.090Z,0
2016-11-16T00:18:18.139Z,0
2016-11-16T00:19:18.193Z,0
2016-11-16T00:20:18.253Z,0
2016-11-16T00:21:18.307Z,0
2016-11-16T00:22:18.349Z,0
2016-11-16T00:23:18.430Z,0
2016-11-16T00:24:18.489Z,0
2016-11-16T00:25:18.524Z,0
2016-11-16T00:26:18.579Z,0
2016-11-16T00:27:18.634Z,0
2016-11-16T00:28:18.674Z,0
2016-11-16T00:29:18.736Z,0
2016-11-16T00:30:18.792Z,0
2016-11-16T00:31:18.859Z,0
2016-11-16T00:32:18.908Z,0
2016-11-16T00:33:18.943Z,0
2016-11-16T00:34:19.009Z,0
2016-11-16T00:35:19.059Z,0
2016-11-16T00:36:19.127Z,0
2016-11-16T00:37:19.183Z,0
2016-11-16T00:38:19.237Z,0
2016-11-16T00:39:19.290Z,0
2016-11-16T00:40:19.326Z,0
2016-11-16T00:41:19.393Z,0
2016-11-16T00:42:19.467Z,0
2016-11-16T00:43:19.531Z,0
2016-11-16T00:44:19.566Z,0
2016-11-16T00:45:19.619Z,0
2016-11-16T00:46:19.669Z,0
2016-11-16T00:47:19.723Z,0
2016-11-16T00:48:19.792Z,0
2016-11-16T00:49:19.856Z,0
2016-11-16T00:50:19.907Z,0
2016-11-16T00:51:19.934Z,0
2016-11-16T00:52:20.004Z,0
2016-11-16T00:53:20.075Z,0
2016-11-16T00:54:20.444Z,0
2016-11-16T00:55:20.173Z,0
2016-11-16T00:56:20.234Z,0
2016-11-16T00:57:20.287Z,0
2016-11-16T00:58:20.330Z,0
2016-11-16T00:59:20.392Z,0
2016-11-16T01:00:20.454Z,0
2016-11-16T01:01:20.510Z,0
2016-11-16T01:02:20.535Z,0
2016-11-16T01:03:20.618Z,0
2016-11-16T01:04:20.649Z,0
2016-11-16T01:05:20.696Z,0
2016-11-16T01:06:20.765Z,0
2016-11-16T01:07:20.823Z,0
2016-11-16T01:08:20.885Z,0
2016-11-16T01:09:20.940Z,0
2016-11-16T01:10:21.277Z,0
2016-11-16T01:11:21.052Z,0
2016-11-16T01:12:21.101Z,0
2016-11-16T01:13:21.161Z,0
2016-11-16T01:14:21.184Z,0
2016-11-16T01:15:21.259Z,0
2016-11-16T01:16:21.343Z,0
2016-11-16T01:17:21.364Z,0
2016-11-16T01:18:21.434Z,0
2016-11-16T01:19:21.474Z,0
2016-11-16T01:20:21.545Z,0
2016-11-16T01:21:21.569Z,0
2016-11-16T01:22:21.634Z,0
2016-11-16T01:23:21.708Z,0
2016-11-16T01:24:21.752Z,0
2016-11-16T01:25:21.801Z,0
2016-11-16T01:26:21.866Z,0
2016-11-16T01:27:21.924Z,0
2016-11-16T01:28:21.971Z,0
2016-11-16T01:29:22.027Z,0
2016-11-16T01:30:22.094Z,0
2016-11-16T01:31:22.142Z,0
2016-11-16T01:32:22.202Z,0
2016-11-16T01:33:22.246Z,0
2016-11-16T01:34:22.283Z,0
2016-11-16T01:35:22.364Z,0
2016-11-16T01:36:22.423Z,0
2016-11-16T01:37:22.471Z,0
2016-11-16T01:38:22.517Z,0
2016-11-16T01:39:22.560Z,0
2016-11-16T01:40:22.651Z,0
2016-11-16T01:41:22.689Z,0
2016-11-16T01:42:22.763Z,0
2016-11-16T01:43:22.799Z,0
2016-11-16T01:44:22.843Z,0
2016-11-16T01:45:22.891Z,0
2016-11-16T01:46:23.287Z,0
2016-11-16T01:47:23.022Z,0
2016-11-16T01:48:23.069Z,0
2016-11-16T01:49:23.122Z,0
2016-11-16T01:50:23.171Z,0
2016-11-16T01:51:23.256Z,0
2016-11-16T01:52:23.306Z,0
2016-11-16T01:53:23.348Z,0
2016-11-16T01:54:23.388Z,0
2016-11-16T01:55:23.438Z,0
2016-11-16T01:56:23.530Z,0
2016-11-16T01:57:23.548Z,0
2016-11-16T01:58:23.600Z,0
2016-11-16T01:59:23.676Z,0
2016-11-16T02:00:23.736Z,0
2016-11-16T02:01:23.784Z,0
2016-11-16T02:02:23.854Z,0
2016-11-16T02:03:23.887Z,0
2016-11-16T02:04:23.947Z,0
2016-11-16T02:05:24.004Z,0
2016-11-16T02:06:24.062Z,0
2016-11-16T02:07:24.103Z,0
2016-11-16T02:08:24.169Z,0
2016-11-16T02:09:24.223Z,0
2016-11-16T02:10:24.296Z,0
2016-11-16T02:11:24.327Z,0
2016-11-16T02:12:24.382Z,0
2016-11-16T02:13:24.442Z,0
2016-11-16T02:14:24.508Z,0
2016-11-16T02:15:24.572Z,0
2016-11-16T02:16:24.603Z,0
2016-11-16T02:17:24.645Z,0
2016-11-16T02:18:24.736Z,0
2016-11-16T02:19:24.792Z,0
2016-11-16T02:20:24.842Z,0
2016-11-16T02:21:24.894Z,0
2016-11-16T02:22:24.951Z,0
2016-11-16T02:23:25.010Z,0
2016-11-16T02:24:25.045Z,0
2016-11-16T02:25:25.103Z,0
2016-11-16T02:26:25.139Z,0
2016-11-16T02:27:25.200Z,0
2016-11-16T02:28:25.307Z,0
2016-11-16T02:29:25.322Z,0
2016-11-16T02:30:25.396Z,0
2016-11-16T02:31:25.421Z,0
2016-11-16T02:32:25.478Z,0
2016-11-16T02:33:25.546Z,0
2016-11-16T02:34:25.593Z,0
2016-11-16T02:35:25.663Z,0
2016-11-16T02:36:25.697Z,0
2016-11-16T02:37:25.760Z,0
2016-11-16T02:38:25.819Z,0
2016-11-16T02:39:25.864Z,0
2016-11-16T02:40:25.939Z,0
2016-11-16T02:41:25.955Z,0
2016-11-16T02:42:26.034Z,0
2016-11-16T02:43:26.091Z,0
2016-11-16T02:44:26.142Z,0
2016-11-16T02:45:26.194Z,0
2016-11-16T02:46:26.250Z,0
2016-11-16T02:47:26.303Z,0
2016-11-16T02:48:26.346Z,0
2016-11-16T02:49:26.419Z,0
2016-11-16T02:50:26.481Z,0
2016-11-16T02:51:26.518Z,0
2016-11-16T02:52:26.576Z,0
2016-11-16T02:53:26.635Z,0
2016-11-16T02:54:26.667Z,0
2016-11-16T02:55:26.743Z,0
2016-11-16T02:56:26.796Z,0
2016-11-16T02:57:26.844Z,0
2016-11-16T02:58:26.915Z,0
2016-11-16T02:59:26.958Z,0
2016-11-16T03:00:27.021Z,0
2016-11-16T03:01:27.065Z,0
2016-11-16T03:02:27.113Z,0
2016-11-16T03:03:27.174Z,0
2016-11-16T03:04:27.227Z,0
2016-11-16T03:05:27.280Z,0
2016-11-16T03:06:27.334Z,0
2016-11-16T03:07:27.389Z,0
2016-11-16T03:08:27.450Z,0
2016-11-16T03:09:27.497Z,0
2016-11-16T03:10:27.559Z,0
2016-11-16T03:11:27.606Z,0
2016-11-16T03:12:27.674Z,0
2016-11-16T03:13:27.721Z,0
2016-11-16T03:14:27.777Z,0
2016-11-16T03:15:27.832Z,0
2016-11-16T03:16:27.877Z,0
2016-11-16T03:17:27.938Z,0
2016-11-16T03:18:27.987Z,0
2016-11-16T03:19:28.053Z,0
2016-11-16T03:20:28.108Z,0
2016-11-16T03:21:28.136Z,0
2016-11-16T03:22:28.215Z,0
2016-11-16T03:23:28.275Z,0
2016-11-16T03:24:28.313Z,0
2016-11-16T03:25:28.371Z,0
2016-11-16T03:26:28.468Z,0
2016-11-16T03:27:28.465Z,0
2016-11-16T03:28:28.556Z,0
2016-11-16T03:29:28.569Z,0
2016-11-16T03:30:28.660Z,0
2016-11-16T03:31:28.717Z,0
2016-11-16T03:32:28.763Z,0
2016-11-16T03:33:28.810Z,0
2016-11-16T03:34:28.885Z,0
2016-11-16T03:35:28.905Z,0
2016-11-16T03:36:28.962Z,0
2016-11-16T03:37:29.015Z,0
2016-11-16T03:38:29.096Z,0
2016-11-16T03:39:29.131Z,0
2016-11-16T03:40:29.189Z,0
2016-11-16T03:41:29.267Z,0
2016-11-16T03:42:29.300Z,0
2016-11-16T03:43:29.353Z,0
2016-11-16T03:44:29.423Z,0
2016-11-16T03:45:29.465Z,0
2016-11-16T03:46:29.508Z,0
2016-11-16T03:47:29.573Z,0
2016-11-16T03:48:29.612Z,0
2016-11-16T03:49:29.685Z,0
2016-11-16T03:50:29.722Z,0
2016-11-16T03:51:29.817Z,0
2016-11-16T03:52:29.859Z,0
2016-11-16T03:53:29.891Z,0
2016-11-16T03:54:29.968Z,0
2016-11-16T03:55:30.000Z,0
2016-11-16T03:56:30.056Z,0
2016-11-16T03:57:30.126Z,0
2016-11-16T03:58:30.181Z,0
2016-11-16T03:59:30.225Z,0
2016-11-16T04:00:30.283Z,0
2016-11-16T04:01:30.338Z,0
2016-11-16T04:02:30.394Z,0
2016-11-16T04:03:30.473Z,0
2016-11-16T04:04:30.507Z,0
2016-11-16T04:05:30.575Z,0
2016-11-16T04:06:30.608Z,0
2016-11-16T04:07:30.683Z,0
2016-11-16T04:08:30.743Z,0
2016-11-16T04:09:30.780Z,0
2016-11-16T04:10:30.819Z,0
2016-11-16T04:11:30.885Z,0
2016-11-16T04:12:30.945Z,0
2016-11-16T04:13:31.010Z,0
2016-11-16T04:14:31.046Z,0
2016-11-16T04:15:31.119Z,0
2016-11-16T04:16:31.167Z,0
2016-11-16T04:17:31.208Z,0
2016-11-16T04:18:31.266Z,0
2016-11-16T04:19:31.312Z,0
2016-11-16T04:20:31.357Z,0
2016-11-16T04:21:31.429Z,0
2016-11-16T04:22:31.492Z,0
2016-11-16T04:23:31.565Z,0
2016-11-16T04:24:31.580Z,0
2016-11-16T04:25:31.646Z,0
2016-11-16T04:26:31.699Z,0
2016-11-16T04:27:31.748Z,0
2016-11-16T04:28:31.800Z,0
2016-11-16T04:29:31.869Z,0
2016-11-16T04:30:31.939Z,0
2016-11-16T04:31:31.987Z,0
2016-11-16T04:32:32.053Z,0
2016-11-16T04:33:32.094Z,0
2016-11-16T04:34:32.137Z,0
2016-11-16T04:35:32.231Z,0
2016-11-16T04:36:32.256Z,0
2016-11-16T04:37:32.301Z,0
2016-11-16T04:38:32.374Z,0
2016-11-16T04:39:32.412Z,0
2016-11-16T04:40:32.458Z,0
2016-11-16T04:41:32.509Z,0
2016-11-16T04:42:32.584Z,0
2016-11-16T04:43:32.638Z,0
2016-11-16T04:44:32.678Z,0
2016-11-16T04:45:32.748Z,0
2016-11-16T04:46:32.788Z,0
2016-11-16T04:47:32.862Z,0
2016-11-16T04:48:32.924Z,0
2016-11-16T04:49:32.973Z,0
2016-11-16T04:50:33.011Z,0
2016-11-16T04:51:33.075Z,0
2016-11-16T04:52:33.123Z,0
2016-11-16T04:53:33.183Z,0
2016-11-16T04:54:33.224Z,0
2016-11-16T04:55:33.310Z,0
2016-11-16T04:56:33.327Z,0
2016-11-16T04:57:33.404Z,0
2016-11-16T04:58:33.448Z,0
2016-11-16T04:59:33.497Z,0
2016-11-16T05:00:33.582Z,0
2016-11-16T05:01:33.607Z,0
2016-11-16T05:02:33.665Z,0
2016-11-16T05:03:33.732Z,0
2016-11-16T05:04:33.779Z,0
2016-11-16T05:05:33.840Z,0
2016-11-16T05:06:33.877Z,0
2016-11-16T05:07:33.954Z,0
2016-11-16T05:08:34.006Z,0
2016-11-16T05:09:34.090Z,0
2016-11-16T05:10:34.113Z,0
2016-11-16T05:11:34.153Z,0
2016-11-16T05:12:34.228Z,0
2016-11-16T05:13:34.277Z,0
2016-11-16T05:14:34.336Z,0
2016-11-16T05:15:34.399Z,0
2016-11-16T05:16:34.453Z,0
2016-11-16T05:17:34.501Z,0
2016-11-16T05:18:34.550Z,0
2016-11-16T05:19:34.600Z,0
2016-11-16T05:20:34.663Z,0
2016-11-16T05:21:34.697Z,0
2016-11-16T05:22:34.770Z,0
2016-11-16T05:23:34.813Z,0
2016-11-16T05:24:34.897Z,0
2016-11-16T05:25:34.937Z,0
2016-11-16T05:26:34.971Z,0
2016-11-16T05:27:35.037Z,0
2016-11-16T05:28:35.094Z,0
2016-11-16T05:29:35.138Z,0
2016-11-16T05:30:35.226Z,0
2016-11-16T05:31:35.266Z,0
2016-11-16T05:32:35.319Z,0
2016-11-16T05:33:35.369Z,0
2016-11-16T05:34:35.409Z,0
2016-11-16T05:35:35.485Z,0
2016-11-16T05:36:35.549Z,0
2016-11-16T05:37:35.584Z,0
2016-11-16T05:38:35.647Z,0
2016-11-16T05:39:35.755Z,0
2016-11-16T05:40:35.774Z,0
2016-11-16T05:41:35.799Z,0
2016-11-16T05:42:35.881Z,0
2016-11-16T05:43:35.937Z,0
2016-11-16T05:44:35.990Z,0
2016-11-16T05:45:36.046Z,0
2016-11-16T05:46:36.094Z,0
2016-11-16T05:47:36.136Z,0
2016-11-16T05:48:36.189Z,0
2016-11-16T05:49:36.246Z,0
2016-11-16T05:50:36.308Z,0
2016-11-16T05:51:36.359Z,0
2016-11-16T05:52:36.779Z,0
2016-11-16T05:53:36.466Z,0
2016-11-16T05:54:36.528Z,0
2016-11-16T05:55:36.569Z,0
2016-11-16T05:56:36.632Z,0
2016-11-16T05:57:36.682Z,0
2016-11-16T05:58:36.727Z,0
2016-11-16T05:59:36.802Z,0
2016-11-16T06:00:36.854Z,0
2016-11-16T06:01:36.904Z,0
2016-11-16T06:02:36.952Z,0
2016-11-16T06:03:37.013Z,0
2016-11-16T06:04:37.088Z,0
2016-11-16T06:05:37.154Z,0
2016-11-16T06:06:37.194Z,4
2016-11-16T06:07:37.241Z,4
2016-11-16T06:08:37.286Z,4
2016-11-16T06:09:37.348Z,4
2016-11-16T06:10:37.401Z,4
2016-11-16T06:11:37.476Z,4
2016-11-16T06:12:37.512Z,4
2016-11-16T06:13:37.586Z,4
2016-11-16T06:14:37.629Z,4
2016-11-16T06:15:37.692Z,4
2016-11-16T06:16:37.730Z,8
2016-11-16T06:17:37.777Z,8
2016-11-16T06:18:37.845Z,8
2016-11-16T06:19:37.896Z,12
2016-11-16T06:20:37.949Z,8
2016-11-16T06:21:38.017Z,8
2016-11-16T06:22:38.070Z,12
2016-11-16T06:23:38.101Z,12
2016-11-16T06:24:38.160Z,16
2016-11-16T06:25:38.212Z,12
2016-11-16T06:26:38.267Z,16
2016-11-16T06:27:38.337Z,16
2016-11-16T06:28:38.404Z,20
2016-11-16T06:29:38.430Z,20
2016-11-16T06:30:38.477Z,24
2016-11-16T06:31:38.563Z,24
2016-11-16T06:32:38.591Z,24
2016-11-16T06:33:38.679Z,28
2016-11-16T06:34:38.738Z,32
2016-11-16T06:35:38.783Z,32
2016-11-16T06:36:38.831Z,36
2016-11-16T06:37:38.900Z,36
2016-11-16T06:38:38.940Z,40
2016-11-16T06:39:38.995Z,44
2016-11-16T06:40:39.034Z,44
2016-11-16T06:41:39.109Z,48
2016-11-16T06:42:39.164Z,52
2016-11-16T06:43:39.191Z,52
2016-11-16T06:44:39.262Z,56
2016-11-16T06:45:39.344Z,60
2016-11-16T06:46:39.372Z,68
2016-11-16T06:47:39.445Z,68
2016-11-16T06:48:39.471Z,72
2016-11-16T06:49:39.550Z,76
2016-11-16T06:50:39.605Z,80
2016-11-16T06:51:39.642Z,80
2016-11-16T06:52:39.694Z,84
2016-11-16T06:53:39.777Z,92
2016-11-16T06:54:39.816Z,96
2016-11-16T06:55:39.884Z,104
2016-11-16T06:56:39.935Z,108
2016-11-16T06:57:39.986Z,112
2016-11-16T06:58:40.043Z,116
2016-11-16T06:59:40.104Z,120
2016-11-16T07:00:40.147Z,124
2016-11-16T07:01:40.490Z,124
2016-11-16T07:02:40.252Z,128
2016-11-16T07:03:40.302Z,132
2016-11-16T07:04:40.376Z,136
2016-11-16T07:05:40.403Z,140
2016-11-16T07:06:40.481Z,148
2016-11-16T07:07:40.511Z,156
2016-11-16T07:08:40.588Z,160
2016-11-16T07:09:40.615Z,164
2016-11-16T07:10:40.686Z,172
2016-11-16T07:11:40.752Z,176
2016-11-16T07:12:40.789Z,176
2016-11-16T07:13:40.869Z,180
2016-11-16T07:14:40.904Z,184
2016-11-16T07:15:40.958Z,192
2016-11-16T07:16:41.033Z,200
2016-11-16T07:17:41.065Z,204
2016-11-16T07:18:41.136Z,208
2016-11-16T07:19:41.186Z,212
2016-11-16T07:20:41.232Z,216
2016-11-16T07:21:41.303Z,224
2016-11-16T07:22:41.349Z,232
2016-11-16T07:23:41.411Z,236
2016-11-16T07:24:41.471Z,236
2016-11-16T07:25:41.506Z,244
2016-11-16T07:26:41.561Z,248
2016-11-16T07:27:41.611Z,256
2016-11-16T07:28:41.664Z,264
2016-11-16T07:29:41.728Z,272
2016-11-16T07:30:41.783Z,280
2016-11-16T07:31:41.854Z,284
2016-11-16T07:32:41.879Z,288
2016-11-16T07:33:41.934Z,300
2016-11-16T07:34:42.013Z,308
2016-11-16T07:35:42.055Z,316
2016-11-16T07:36:42.137Z,312
2016-11-16T07:37:42.169Z,308
2016-11-16T07:38:42.236Z,312
2016-11-16T07:39:42.284Z,320
2016-11-16T07:40:42.344Z,332
2016-11-16T07:41:42.373Z,340
2016-11-16T07:42:42.442Z,352
2016-11-16T07:43:42.484Z,356
2016-11-16T07:44:42.567Z,364
2016-11-16T07:45:42.587Z,364
2016-11-16T07:46:42.665Z,356
2016-11-16T07:47:42.719Z,352
2016-11-16T07:48:42.788Z,348
2016-11-16T07:49:42.826Z,352
2016-11-16T07:50:42.885Z,356
2016-11-16T07:51:42.935Z,356
2016-11-16T07:52:42.976Z,356
2016-11-16T07:53:43.056Z,364
2016-11-16T07:54:43.092Z,376
2016-11-16T07:55:43.139Z,388
2016-11-16T07:56:43.221Z,392
2016-11-16T07:57:43.271Z,412
2016-11-16T07:58:43.324Z,428
2016-11-16T07:59:43.675Z,440
2016-11-16T08:00:43.430Z,452
2016-11-16T08:01:43.477Z,460
2016-11-16T08:02:43.528Z,480
2016-11-16T08:03:43.600Z,504
2016-11-16T08:04:43.645Z,512
2016-11-16T08:05:43.681Z,516
2016-11-16T08:06:43.751Z,516
2016-11-16T08:07:43.820Z,524
2016-11-16T08:08:43.859Z,528
2016-11-16T08:09:43.910Z,532
2016-11-16T08:10:43.965Z,528
2016-11-16T08:11:44.027Z,540
2016-11-16T08:12:44.085Z,560
2016-11-16T08:13:44.151Z,572
2016-11-16T08:14:44.191Z,572
2016-11-16T08:15:44.263Z,568
2016-11-16T08:16:44.317Z,560
2016-11-16T08:17:44.358Z,556
2016-11-16T08:18:44.409Z,556
2016-11-16T08:19:44.461Z,552
2016-11-16T08:20:44.501Z,552
2016-11-16T08:21:44.594Z,552
2016-11-16T08:22:44.649Z,556
2016-11-16T08:23:44.691Z,556
2016-11-16T08:24:44.723Z,552
2016-11-16T08:25:44.797Z,552
2016-11-16T08:26:44.862Z,548
2016-11-16T08:27:44.925Z,556
2016-11-16T08:28:44.953Z,564
2016-11-16T08:29:45.018Z,580
2016-11-16T08:30:45.065Z,596
2016-11-16T08:31:45.126Z,616
2016-11-16T08:32:45.196Z,648
2016-11-16T08:33:45.230Z,664
2016-11-16T08:34:45.291Z,688
2016-11-16T08:35:45.341Z,720
2016-11-16T08:36:45.392Z,736
2016-11-16T08:37:45.468Z,760
2016-11-16T08:38:45.527Z,784
2016-11-16T08:39:45.572Z,784
2016-11-16T08:40:45.634Z,796
2016-11-16T08:41:45.677Z,800
2016-11-16T08:42:45.728Z,820
2016-11-16T08:43:45.764Z,844
2016-11-16T08:44:45.844Z,868
2016-11-16T08:45:45.874Z,880
2016-11-16T08:46:45.956Z,884
2016-11-16T08:47:45.982Z,884
2016-11-16T08:48:46.074Z,876
2016-11-16T08:49:46.108Z,884
2016-11-16T08:50:46.175Z,884
2016-11-16T08:51:46.220Z,884
2016-11-16T08:52:46.297Z,888
2016-11-16T08:53:46.333Z,896
2016-11-16T08:54:46.436Z,908
2016-11-16T08:55:46.442Z,904
2016-11-16T08:56:46.507Z,896
2016-11-16T08:57:46.546Z,888
2016-11-16T08:58:46.612Z,888
2016-11-16T08:59:46.656Z,896
2016-11-16T09:00:46.719Z,916
2016-11-16T09:01:46.775Z,920
2016-11-16T09:02:46.825Z,948
2016-11-16T09:03:46.895Z,976
2016-11-16T09:05:46.995Z,1044
2016-11-16T09:06:47.026Z,1088
2016-11-16T09:07:47.101Z,1100
2016-11-16T09:08:47.142Z,1108
2016-11-16T09:09:47.209Z,1152
2016-11-16T09:10:47.250Z,1164
2016-11-16T09:11:47.312Z,1156
2016-11-16T09:12:47.369Z,1172
2016-11-16T09:13:47.428Z,1180
2016-11-16T09:14:47.496Z,1184
2016-11-16T09:15:47.526Z,1184
2016-11-16T09:16:47.593Z,1188
2016-11-16T09:17:47.664Z,1164
2016-11-16T09:18:48.031Z,1156
2016-11-16T09:19:47.740Z,1152
2016-11-16T09:20:47.815Z,1144
2016-11-16T09:21:47.864Z,1140
2016-11-16T09:22:47.937Z,1132
2016-11-16T09:23:48.842Z,1120
2016-11-16T09:24:48.026Z,1108
2016-11-16T09:25:48.088Z,1096
2016-11-16T09:26:48.139Z,1092
2016-11-16T09:27:48.201Z,1104
2016-11-16T09:28:48.242Z,1128
2016-11-16T09:29:48.316Z,1144
2016-11-16T09:30:48.365Z,1168
2016-11-16T09:31:48.418Z,1188
2016-11-16T09:32:48.669Z,1180
2016-11-16T09:33:48.719Z,1148
2016-11-16T09:34:48.592Z,1156
2016-11-16T09:35:48.626Z,1160
2016-11-16T09:36:48.704Z,1152
2016-11-16T09:37:48.742Z,1160
2016-11-16T09:38:48.806Z,1164
2016-11-16T09:39:48.853Z,1176
2016-11-16T09:40:48.911Z,1180
2016-11-16T09:41:48.961Z,1164
2016-11-16T09:42:49.032Z,1148
2016-11-16T09:43:49.090Z,1136
2016-11-16T09:44:49.174Z,1136
2016-11-16T09:45:49.186Z,1112
2016-11-16T09:46:49.228Z,1100
2016-11-16T09:47:49.298Z,1096
2016-11-16T09:48:49.377Z,1108
2016-11-16T09:49:49.407Z,1096
2016-11-16T09:50:49.462Z,1072
2016-11-16T09:51:49.519Z,1052
2016-11-16T09:52:49.562Z,1044
2016-11-16T09:53:49.633Z,1028
2016-11-16T09:54:49.685Z,1016
2016-11-16T09:55:49.746Z,1000
2016-11-16T09:56:49.796Z,1000
2016-11-16T09:57:49.863Z,992
2016-11-16T09:58:49.919Z,984
2016-11-16T09:59:49.972Z,984
2016-11-16T10:00:50.022Z,984
2016-11-16T10:01:50.285Z,976
2016-11-16T10:02:50.326Z,992
2016-11-16T10:03:50.182Z,1004
2016-11-16T10:04:50.234Z,1016
2016-11-16T10:05:50.314Z,1016
2016-11-16T10:06:50.349Z,1032
2016-11-16T10:07:50.409Z,1040
2016-11-16T10:08:50.469Z,1052
2016-11-16T10:09:50.526Z,1056
2016-11-16T10:10:50.596Z,1056
2016-11-16T10:11:50.650Z,1040
2016-11-16T10:12:50.673Z,1004
2016-11-16T10:13:50.736Z,980
2016-11-16T10:14:50.805Z,968
2016-11-16T10:15:50.851Z,960
2016-11-16T10:16:50.911Z,952
2016-11-16T10:17:50.962Z,952
2016-11-16T10:18:51.015Z,936
2016-11-16T10:19:51.057Z,928
2016-11-16T10:20:51.129Z,908
2016-11-16T10:21:51.179Z,888
2016-11-16T10:22:51.219Z,876
2016-11-16T10:23:51.297Z,860
2016-11-16T10:24:51.361Z,860
2016-11-16T10:25:51.691Z,868
2016-11-16T10:26:51.449Z,908
2016-11-16T10:27:51.524Z,940
2016-11-16T10:28:51.568Z,968
2016-11-16T10:29:51.603Z,984
